Terminal Aerodrome Forecast
Issued by NWS Duluth, MN

Home | Current Version | Previous Version | Text Only | Print | Product List | Glossary On
Versions: 1 2 3 4 5 6 7 8 9 10 11 12 13 14 15 16 17 18 19 20 21 22 23 24 25 26
000
FTUS43 KDLH 262300
TAFDLH
TAF
KDLH 262322Z 2700/2724 35007KT P6SM -SN OVC019
      TEMPO 2702/2705 5SM -SN OVC015
     FM270800 34004KT P6SM BKN018 OVC120
     FM271600 31009KT P6SM BKN028 BKN080
     FM272100 24006KT P6SM BKN035=

USA.gov is the U.S. government's official web portal to all federal, state and local government web resources and services.